Time;durP1;ratioP1;P1;durP2;ratioP2;P2;SDS_P1;SDS_P2;PMS_P1;PMS_P2;Temp;Humidity;BMP_temperature;BMP_pressure;BME280_temperature;BME280_humidity;BME280_pressure;Samples;Min_cycle;Max_cycle;Signal;HPM_P1;HPM_P2
2021/09/26 00:01:50;;;;;;;18.80;9.00;;;;;;;;;;4982900;28;20018;-41
2021/09/26 00:04:16;;;;;;;16.52;8.05;;;;;;;;;;4985780;28;20036;-42
2021/09/26 00:06:41;;;;;;;25.25;9.40;;;;;;;;;;4993450;28;20396;-42
2021/09/26 00:09:06;;;;;;;43.05;9.07;;;;;;;;;;4994735;28;20037;-46
2021/09/26 00:11:32;;;;;;;30.23;9.25;;;;;;;;;;4989159;28;20078;-46
2021/09/26 00:13:57;;;;;;;49.83;11.07;;;;;;;;;;4992104;28;20394;-45
2021/09/26 00:16:23;;;;;;;23.13;6.43;;;;;;;;;;4989287;28;20046;-42
2021/09/26 00:18:49;;;;;;;31.95;10.50;;;;;;;;;;4988642;28;20022;-41
2021/09/26 00:21:14;;;;;;;31.00;10.25;;;;;;;;;;4991232;28;20410;-43
2021/09/26 00:23:40;;;;;;;24.95;9.10;;;;;;;;;;4993333;28;20110;-44
2021/09/26 00:26:05;;;;;;;17.73;7.75;;;;;;;;;;4991901;28;20441;-42
2021/09/26 00:28:31;;;;;;;20.40;8.35;;;;;;;;;;4988589;28;20058;-42
2021/09/26 00:30:57;;;;;;;18.88;8.77;;;;;;;;;;4988230;28;20022;-42
2021/09/26 00:33:23;;;;;;;29.15;11.05;;;;;;;;;;4989774;28;20674;-44
2021/09/26 00:35:48;;;;;;;11.88;6.82;;;;;;;;;;4985831;28;20026;-41
2021/09/26 00:38:14;;;;;;;19.38;7.25;;;;;;;;;;4986840;28;20022;-42
2021/09/26 00:40:40;;;;;;;22.77;7.80;;;;;;;;;;4993237;28;20031;-43
2021/09/26 00:43:05;;;;;;;27.15;11.07;;;;;;;;;;4990090;28;20091;-45
2021/09/26 00:45:31;;;;;;;29.80;12.50;;;;;;;;;;4992092;28;20027;-44
2021/09/26 00:47:56;;;;;;;23.70;8.23;;;;;;;;;;4987370;28;20042;-41
2021/09/26 00:50:23;;;;;;;18.85;8.02;;;;;;;;;;4991066;28;20111;-43
2021/09/26 00:52:49;;;;;;;19.15;9.38;;;;;;;;;;4991985;28;20014;-45
2021/09/26 00:55:15;;;;;;;27.02;9.00;;;;;;;;;;4990710;28;20023;-46
2021/09/26 00:57:41;;;;;;;29.23;8.40;;;;;;;;;;4995722;28;20032;-43
2021/09/26 01:00:07;;;;;;;19.80;8.90;;;;;;;;;;4987279;28;20022;-46
2021/09/26 01:02:32;;;;;;;46.95;12.35;;;;;;;;;;4989426;28;20505;-44
2021/09/26 01:04:58;;;;;;;21.55;10.95;;;;;;;;;;4988955;28;20050;-47
2021/09/26 01:07:34;;;;;;;34.60;11.70;;;;;;;;;;4987721;28;20112;-44
2021/09/26 01:10:03;;;;;;;31.58;9.38;;;;;;;;;;4987375;28;20026;-45
2021/09/26 01:12:50;;;;;;;23.00;9.00;;;;;;;;;;4987768;28;20133;-45
2021/09/26 01:15:26;;;;;;;23.13;10.00;;;;;;;;;;4988134;28;20026;-43
2021/09/26 01:17:51;;;;;;;33.17;9.68;;;;;;;;;;4985810;28;20032;-46
2021/09/26 01:20:16;;;;;;;17.95;9.15;;;;;;;;;;4984085;28;20030;-42
2021/09/26 01:22:51;;;;;;;28.50;10.93;;;;;;;;;;4990758;28;20639;-42
2021/09/26 01:25:20;;;;;;;29.98;11.10;;;;;;;;;;4991586;28;20653;-43
2021/09/26 01:27:56;;;;;;;16.42;8.70;;;;;;;;;;4986467;28;20100;-44
2021/09/26 01:30:23;;;;;;;17.50;8.85;;;;;;;;;;4990687;28;20031;-46
2021/09/26 01:32:54;;;;;;;11.27;8.35;;;;;;;;;;4982367;28;20033;-43
2021/09/26 01:35:21;;;;;;;22.05;8.60;;;;;;;;;;4989171;28;20045;-45
2021/09/26 01:37:58;;;;;;;14.63;7.28;;;;;;;;;;4987873;28;20105;-43
2021/09/26 01:40:27;;;;;;;16.95;7.72;;;;;;;;;;4989152;28;20025;-44
2021/09/26 01:42:55;;;;;;;28.65;8.73;;;;;;;;;;4988912;28;20042;-46
2021/09/26 01:45:30;;;;;;;16.70;7.80;;;;;;;;;;4988788;28;20034;-45
2021/09/26 01:48:24;;;;;;;16.13;6.78;;;;;;;;;;4987068;28;20036;-48
2021/09/26 01:50:51;;;;;;;17.00;8.70;;;;;;;;;;4992336;28;20049;-44
2021/09/26 01:53:17;;;;;;;29.85;8.88;;;;;;;;;;4998103;28;20044;-40
2021/09/26 01:55:43;;;;;;;18.10;8.23;;;;;;;;;;4986860;28;20026;-44
2021/09/26 01:58:08;;;;;;;22.63;7.40;;;;;;;;;;4987617;28;20791;-41
2021/09/26 02:00:34;;;;;;;21.92;7.97;;;;;;;;;;4986932;28;20041;-41
2021/09/26 02:03:00;;;;;;;18.23;8.82;;;;;;;;;;4986090;28;20026;-44
2021/09/26 02:05:25;;;;;;;17.08;7.25;;;;;;;;;;4985518;28;20101;-46
2021/09/26 02:07:51;;;;;;;16.83;6.75;;;;;;;;;;4987111;28;20026;-42
2021/09/26 02:10:21;;;;;;;24.15;7.80;;;;;;;;;;4985759;28;20036;-41
2021/09/26 02:12:47;;;;;;;15.50;7.10;;;;;;;;;;4987277;28;20107;-42
2021/09/26 02:15:16;;;;;;;17.80;9.85;;;;;;;;;;4988211;28;20534;-42
2021/09/26 02:17:45;;;;;;;25.00;10.05;;;;;;;;;;4987026;28;20813;-47
2021/09/26 02:20:11;;;;;;;16.75;9.32;;;;;;;;;;4988373;28;20033;-42
2021/09/26 02:22:37;;;;;;;44.58;9.10;;;;;;;;;;4986112;28;20026;-43
2021/09/26 02:25:05;;;;;;;15.25;6.72;;;;;;;;;;4988966;28;20033;-44
2021/09/26 02:27:31;;;;;;;19.90;7.80;;;;;;;;;;4993749;28;20054;-46
2021/09/26 02:29:56;;;;;;;30.40;10.93;;;;;;;;;;4986784;28;20053;-47
2021/09/26 02:32:21;;;;;;;20.83;13.07;;;;;;;;;;4990530;28;20517;-44
2021/09/26 02:34:47;;;;;;;39.20;9.85;;;;;;;;;;4989944;28;20022;-41
2021/09/26 02:37:12;;;;;;;27.13;9.50;;;;;;;;;;4990675;28;20486;-44
2021/09/26 02:39:38;;;;;;;18.55;8.52;;;;;;;;;;4987797;28;20030;-42
2021/09/26 02:42:08;;;;;;;26.67;10.07;;;;;;;;;;4984221;28;20084;-42
2021/09/26 02:44:38;;;;;;;20.70;7.53;;;;;;;;;;4986909;28;20491;-43
2021/09/26 02:47:16;;;;;;;17.08;8.07;;;;;;;;;;4988087;28;20604;-43
2021/09/26 02:49:42;;;;;;;11.48;7.97;;;;;;;;;;4987020;28;20030;-47
2021/09/26 02:52:09;;;;;;;22.85;8.50;;;;;;;;;;4987646;28;20790;-41
2021/09/26 02:54:39;;;;;;;21.08;9.30;;;;;;;;;;4991116;28;20037;-43
2021/09/26 02:57:04;;;;;;;18.58;9.10;;;;;;;;;;4984540;28;20053;-43
2021/09/26 02:59:30;;;;;;;12.00;7.78;;;;;;;;;;4990192;28;20065;-44
2021/09/26 03:01:55;;;;;;;25.55;8.23;;;;;;;;;;4985664;28;20022;-45
2021/09/26 03:04:21;;;;;;;27.23;7.80;;;;;;;;;;4988470;28;20029;-45
2021/09/26 03:06:47;;;;;;;19.38;6.85;;;;;;;;;;4985158;28;20670;-44
2021/09/26 03:09:12;;;;;;;15.57;6.93;;;;;;;;;;4987227;28;20029;-44
2021/09/26 03:11:38;;;;;;;22.65;9.18;;;;;;;;;;4993800;28;20029;-45
2021/09/26 03:14:03;;;;;;;21.80;8.73;;;;;;;;;;4990074;28;20057;-43
2021/09/26 03:16:29;;;;;;;14.00;6.93;;;;;;;;;;4988823;28;20034;-43
2021/09/26 03:18:54;;;;;;;15.68;8.48;;;;;;;;;;4986558;28;20619;-45
2021/09/26 03:21:19;;;;;;;23.00;8.85;;;;;;;;;;4990833;28;20090;-41
2021/09/26 03:23:44;;;;;;;11.45;6.88;;;;;;;;;;4990534;28;20022;-45
2021/09/26 03:26:10;;;;;;;28.05;9.50;;;;;;;;;;4988829;28;20438;-44
2021/09/26 03:28:35;;;;;;;25.77;9.52;;;;;;;;;;4991868;28;20019;-48
2021/09/26 03:31:00;;;;;;;13.93;8.43;;;;;;;;;;4989353;28;20550;-49
2021/09/26 03:33:26;;;;;;;31.30;7.97;;;;;;;;;;4986352;28;20679;-45
2021/09/26 03:35:51;;;;;;;24.98;10.02;;;;;;;;;;4989518;28;20023;-42
2021/09/26 03:38:16;;;;;;;15.23;8.25;;;;;;;;;;4986856;28;20026;-44
2021/09/26 03:40:42;;;;;;;16.60;8.02;;;;;;;;;;4985228;28;20466;-42
2021/09/26 03:43:07;;;;;;;21.27;9.02;;;;;;;;;;4992129;28;20099;-42
2021/09/26 03:45:32;;;;;;;12.68;7.28;;;;;;;;;;4987759;28;20575;-43
2021/09/26 03:47:58;;;;;;;25.83;9.68;;;;;;;;;;4990509;28;20030;-41
2021/09/26 03:50:23;;;;;;;29.63;9.45;;;;;;;;;;4992294;28;20033;-42
2021/09/26 03:52:49;;;;;;;8.25;7.07;;;;;;;;;;4992700;28;20381;-43
2021/09/26 03:55:14;;;;;;;17.25;9.80;;;;;;;;;;4993135;28;20025;-44
2021/09/26 03:57:40;;;;;;;14.88;8.98;;;;;;;;;;4993919;28;20358;-40
2021/09/26 04:00:06;;;;;;;20.13;10.35;;;;;;;;;;4991422;28;20079;-44
2021/09/26 04:02:31;;;;;;;42.20;10.73;;;;;;;;;;4990300;28;20027;-43
2021/09/26 04:04:57;;;;;;;18.85;9.85;;;;;;;;;;4993915;28;20152;-41
2021/09/26 04:07:22;;;;;;;20.35;9.55;;;;;;;;;;4989020;28;20034;-44
2021/09/26 04:09:47;;;;;;;26.25;9.38;;;;;;;;;;4991396;28;20029;-43
2021/09/26 04:12:13;;;;;;;22.90;9.52;;;;;;;;;;4989819;28;20033;-41
2021/09/26 04:14:39;;;;;;;11.55;7.97;;;;;;;;;;4988010;28;20672;-43
2021/09/26 04:17:04;;;;;;;17.05;7.95;;;;;;;;;;4993798;28;20124;-43
2021/09/26 04:19:29;;;;;;;15.77;10.07;;;;;;;;;;4989668;28;20105;-41
2021/09/26 04:21:55;;;;;;;19.33;9.07;;;;;;;;;;4986075;28;20023;-45
2021/09/26 04:24:20;;;;;;;27.35;10.20;;;;;;;;;;4990036;28;20554;-42
2021/09/26 04:26:45;;;;;;;11.85;8.43;;;;;;;;;;4992890;28;20034;-45
2021/09/26 04:29:11;;;;;;;18.15;11.20;;;;;;;;;;4995658;28;20023;-44
2021/09/26 04:31:36;;;;;;;17.10;9.85;;;;;;;;;;4992784;28;20049;-42
2021/09/26 04:34:02;;;;;;;23.98;9.93;;;;;;;;;;4994872;28;20082;-43
2021/09/26 04:36:27;;;;;;;16.23;8.60;;;;;;;;;;4981664;28;20022;-46
2021/09/26 04:38:52;;;;;;;28.33;10.75;;;;;;;;;;4989788;28;20026;-43
2021/09/26 04:41:18;;;;;;;20.35;9.88;;;;;;;;;;4986407;28;20046;-39
2021/09/26 04:43:43;;;;;;;19.20;10.38;;;;;;;;;;4986468;28;20781;-41
2021/09/26 04:46:08;;;;;;;20.00;8.38;;;;;;;;;;4988804;28;20026;-42
2021/09/26 04:48:34;;;;;;;13.50;6.68;;;;;;;;;;4989501;28;20546;-41
2021/09/26 04:50:59;;;;;;;19.10;8.88;;;;;;;;;;4991629;28;20524;-40
2021/09/26 04:53:24;;;;;;;25.67;9.98;;;;;;;;;;4993665;28;20113;-40
2021/09/26 04:55:50;;;;;;;18.90;8.75;;;;;;;;;;4988634;28;20387;-39
2021/09/26 04:58:16;;;;;;;24.42;12.00;;;;;;;;;;4991497;28;20029;-39
2021/09/26 05:00:42;;;;;;;21.92;11.32;;;;;;;;;;4988128;28;20109;-40
2021/09/26 05:03:07;;;;;;;25.20;10.98;;;;;;;;;;4991006;28;20142;-41
2021/09/26 05:05:33;;;;;;;24.02;11.07;;;;;;;;;;4989746;28;20097;-41
2021/09/26 05:07:58;;;;;;;15.13;7.78;;;;;;;;;;4992472;28;20037;-42
2021/09/26 05:10:23;;;;;;;17.30;10.77;;;;;;;;;;4992042;28;20563;-40
2021/09/26 05:12:49;;;;;;;18.50;10.60;;;;;;;;;;4992109;28;20037;-42
2021/09/26 05:15:15;;;;;;;22.38;8.95;;;;;;;;;;4990333;28;20538;-39
2021/09/26 05:17:40;;;;;;;15.05;10.18;;;;;;;;;;4989817;28;20088;-41
2021/09/26 05:20:06;;;;;;;13.38;9.27;;;;;;;;;;4991020;28;20087;-42
2021/09/26 05:22:32;;;;;;;24.42;10.55;;;;;;;;;;4992150;28;20053;-41
2021/09/26 05:24:57;;;;;;;20.88;9.27;;;;;;;;;;4989355;28;20072;-42
2021/09/26 05:27:23;;;;;;;14.40;10.70;;;;;;;;;;4992053;28;20034;-42
2021/09/26 05:29:48;;;;;;;22.45;9.85;;;;;;;;;;4990335;28;20558;-49
2021/09/26 05:32:13;;;;;;;12.40;10.20;;;;;;;;;;4984452;28;20049;-42
2021/09/26 05:34:38;;;;;;;39.33;10.15;;;;;;;;;;4991093;28;20100;-42
2021/09/26 05:37:04;;;;;;;26.05;11.38;;;;;;;;;;4995430;28;20022;-44
2021/09/26 05:39:31;;;;;;;14.88;9.75;;;;;;;;;;4990994;28;20571;-41
2021/09/26 05:41:57;;;;;;;25.23;11.13;;;;;;;;;;4987549;28;20467;-45
2021/09/26 05:44:22;;;;;;;32.03;11.77;;;;;;;;;;4986195;28;20503;-42
2021/09/26 05:46:48;;;;;;;18.13;9.85;;;;;;;;;;4990402;28;20446;-46
2021/09/26 05:49:13;;;;;;;24.38;11.10;;;;;;;;;;4990069;28;20073;-43
2021/09/26 05:51:39;;;;;;;20.55;12.27;;;;;;;;;;4991351;28;20106;-42
2021/09/26 05:54:04;;;;;;;25.08;11.93;;;;;;;;;;4987585;28;20028;-46
2021/09/26 05:56:29;;;;;;;15.40;11.25;;;;;;;;;;4992096;28;20045;-47
2021/09/26 05:58:55;;;;;;;28.50;10.75;;;;;;;;;;4989946;28;20027;-44
2021/09/26 06:01:20;;;;;;;21.65;11.40;;;;;;;;;;4988424;28;20028;-47
2021/09/26 06:03:45;;;;;;;24.48;18.17;;;;;;;;;;4990725;28;20027;-44
2021/09/26 06:06:11;;;;;;;34.42;20.75;;;;;;;;;;4987784;28;20077;-44
2021/09/26 06:08:36;;;;;;;21.38;13.50;;;;;;;;;;4988391;28;20058;-44
2021/09/26 06:11:02;;;;;;;39.28;12.23;;;;;;;;;;4990408;28;20026;-42
2021/09/26 06:13:27;;;;;;;27.88;12.45;;;;;;;;;;4989719;28;20101;-41
2021/09/26 06:15:53;;;;;;;16.23;10.43;;;;;;;;;;4989212;28;20026;-42
2021/09/26 06:18:18;;;;;;;25.35;13.25;;;;;;;;;;4984030;28;20019;-44
2021/09/26 06:20:45;;;;;;;18.15;11.93;;;;;;;;;;4989542;28;20057;-45
2021/09/26 06:23:10;;;;;;;20.48;11.05;;;;;;;;;;4987334;28;20499;-41
2021/09/26 06:25:35;;;;;;;20.77;14.82;;;;;;;;;;4986174;28;20031;-44
2021/09/26 06:28:01;;;;;;;26.65;14.40;;;;;;;;;;4986295;28;20066;-41
2021/09/26 06:30:26;;;;;;;32.42;15.95;;;;;;;;;;4990019;28;20030;-41
2021/09/26 06:32:51;;;;;;;28.15;16.80;;;;;;;;;;4988267;28;20117;-42
2021/09/26 06:35:17;;;;;;;30.35;23.30;;;;;;;;;;4983918;28;20122;-43
2021/09/26 06:37:42;;;;;;;33.40;22.60;;;;;;;;;;4986044;28;20048;-43
2021/09/26 06:40:07;;;;;;;24.73;16.45;;;;;;;;;;4992874;28;20022;-46
2021/09/26 06:42:33;;;;;;;28.95;15.45;;;;;;;;;;4985154;28;20096;-44
2021/09/26 06:44:59;;;;;;;36.95;15.60;;;;;;;;;;4988053;28;20101;-46
2021/09/26 06:47:24;;;;;;;25.23;17.38;;;;;;;;;;4989626;28;20030;-46
2021/09/26 06:49:49;;;;;;;31.38;16.98;;;;;;;;;;4989418;28;20049;-40
2021/09/26 06:52:15;;;;;;;30.52;18.40;;;;;;;;;;4988841;28;20500;-45
2021/09/26 06:54:41;;;;;;;35.13;18.02;;;;;;;;;;4989976;28;20533;-48
2021/09/26 06:57:07;;;;;;;21.15;15.30;;;;;;;;;;4984529;28;20683;-43
2021/09/26 06:59:32;;;;;;;21.13;14.48;;;;;;;;;;4988253;28;20037;-43
2021/09/26 07:01:58;;;;;;;18.80;14.05;;;;;;;;;;4990472;28;20372;-45
2021/09/26 07:04:24;;;;;;;26.60;18.02;;;;;;;;;;4986159;28;20026;-43
2021/09/26 07:06:50;;;;;;;14.63;11.73;;;;;;;;;;4988456;28;20040;-45
2021/09/26 07:09:17;;;;;;;22.45;14.75;;;;;;;;;;4990032;28;20033;-46
2021/09/26 07:11:42;;;;;;;40.33;28.30;;;;;;;;;;4989760;28;20030;-42
2021/09/26 07:14:07;;;;;;;77.30;59.30;;;;;;;;;;4991502;28;20711;-45
2021/09/26 07:16:33;;;;;;;72.03;55.25;;;;;;;;;;4991449;28;20484;-46
2021/09/26 07:18:58;;;;;;;65.07;36.92;;;;;;;;;;4991172;28;20022;-41
2021/09/26 07:21:24;;;;;;;53.05;39.15;;;;;;;;;;4991429;28;20225;-43
2021/09/26 07:23:49;;;;;;;49.20;29.70;;;;;;;;;;4988240;28;20468;-42
2021/09/26 07:26:15;;;;;;;38.53;21.40;;;;;;;;;;4990658;28;20033;-48
2021/09/26 07:28:40;;;;;;;38.20;26.20;;;;;;;;;;4990641;28;20018;-48
2021/09/26 07:31:06;;;;;;;39.53;23.02;;;;;;;;;;4990647;28;20498;-46
2021/09/26 07:33:31;;;;;;;35.88;21.92;;;;;;;;;;4991789;28;20025;-49
2021/09/26 07:35:57;;;;;;;26.98;21.13;;;;;;;;;;4990020;28;20030;-43
2021/09/26 07:38:22;;;;;;;34.67;23.60;;;;;;;;;;4989424;28;20028;-42
2021/09/26 07:40:47;;;;;;;41.33;26.05;;;;;;;;;;4989265;28;20018;-42
2021/09/26 07:43:13;;;;;;;37.47;29.55;;;;;;;;;;4992258;28;20046;-41
2021/09/26 07:45:38;;;;;;;49.00;39.65;;;;;;;;;;4993031;28;20470;-46
2021/09/26 07:48:04;;;;;;;64.50;41.70;;;;;;;;;;4991517;28;20057;-42
2021/09/26 07:50:29;;;;;;;58.22;41.88;;;;;;;;;;4988291;28;20026;-42
2021/09/26 07:52:54;;;;;;;70.03;54.67;;;;;;;;;;4993514;28;20031;-41
2021/09/26 07:55:20;;;;;;;72.68;50.85;;;;;;;;;;4991709;28;20447;-42
2021/09/26 07:57:46;;;;;;;96.20;60.20;;;;;;;;;;4993291;28;20027;-42
2021/09/26 08:00:11;;;;;;;75.07;56.85;;;;;;;;;;4990901;28;20026;-42
2021/09/26 08:02:37;;;;;;;71.95;59.20;;;;;;;;;;4991210;28;20037;-42
2021/09/26 08:05:02;;;;;;;81.60;64.75;;;;;;;;;;4990002;28;20481;-42
2021/09/26 08:07:29;;;;;;;77.15;57.03;;;;;;;;;;4990671;28;20943;-46
2021/09/26 08:09:55;;;;;;;67.95;52.17;;;;;;;;;;4988754;28;20061;-42
2021/09/26 08:12:20;;;;;;;72.90;49.67;;;;;;;;;;4991051;28;20519;-41
2021/09/26 08:14:46;;;;;;;56.28;40.30;;;;;;;;;;4993509;28;20061;-43
2021/09/26 08:17:11;;;;;;;46.60;37.15;;;;;;;;;;4990889;28;20535;-41
2021/09/26 08:19:36;;;;;;;57.03;40.15;;;;;;;;;;4990920;28;20026;-41
2021/09/26 08:22:05;;;;;;;65.30;43.30;;;;;;;;;;4985274;28;20127;-42
2021/09/26 08:24:32;;;;;;;62.70;33.55;;;;;;;;;;4993440;28;20029;-43
2021/09/26 08:26:57;;;;;;;51.20;30.90;;;;;;;;;;4994619;28;20077;-43
2021/09/26 08:29:23;;;;;;;40.88;21.92;;;;;;;;;;4990843;28;20486;-42
2021/09/26 08:31:48;;;;;;;34.53;22.73;;;;;;;;;;4986007;28;20036;-42
2021/09/26 08:34:13;;;;;;;35.75;19.38;;;;;;;;;;4992922;28;20026;-41
2021/09/26 08:36:39;;;;;;;25.33;18.77;;;;;;;;;;4987506;28;20462;-42
2021/09/26 08:39:04;;;;;;;28.67;17.85;;;;;;;;;;4988923;28;20803;-47
2021/09/26 08:41:31;;;;;;;48.85;15.10;;;;;;;;;;4987911;28;20057;-47
2021/09/26 08:43:56;;;;;;;17.95;15.30;;;;;;;;;;4994610;28;20018;-46
2021/09/26 08:46:22;;;;;;;32.70;15.98;;;;;;;;;;4991779;28;20024;-44
2021/09/26 08:48:47;;;;;;;31.20;14.93;;;;;;;;;;4986108;28;20048;-43
2021/09/26 08:51:12;;;;;;;21.48;11.82;;;;;;;;;;4986738;28;20638;-44
2021/09/26 08:53:38;;;;;;;22.70;12.82;;;;;;;;;;4984058;28;20109;-45
2021/09/26 08:56:03;;;;;;;15.50;11.30;;;;;;;;;;4996337;28;20022;-46
2021/09/26 08:58:29;;;;;;;19.52;8.02;;;;;;;;;;4984298;28;20030;-47
2021/09/26 09:00:54;;;;;;;11.60;6.50;;;;;;;;;;4987307;28;20052;-44
2021/09/26 09:03:20;;;;;;;24.15;8.30;;;;;;;;;;4981025;28;20054;-42
2021/09/26 09:05:50;;;;;;;14.35;9.20;;;;;;;;;;4991933;28;20034;-46
2021/09/26 09:08:16;;;;;;;23.42;9.85;;;;;;;;;;4989522;28;20475;-42
2021/09/26 09:10:58;;;;;;;27.33;10.45;;;;;;;;;;4992833;28;20117;-47
2021/09/26 09:13:30;;;;;;;22.90;9.98;;;;;;;;;;4990120;28;20030;-48
2021/09/26 09:16:01;;;;;;;18.38;10.70;;;;;;;;;;4991263;28;20040;-47
2021/09/26 09:18:37;;;;;;;20.23;7.90;;;;;;;;;;4988818;28;20006;-43
2021/09/26 09:21:13;;;;;;;19.23;9.40;;;;;;;;;;4989357;28;20025;-48
2021/09/26 09:23:39;;;;;;;10.68;9.35;;;;;;;;;;4991610;28;20155;-43
2021/09/26 09:26:04;;;;;;;14.30;8.65;;;;;;;;;;4983323;28;20121;-42
2021/09/26 09:28:30;;;;;;;23.20;10.63;;;;;;;;;;4989607;28;20031;-47
2021/09/26 09:30:57;;;;;;;11.85;8.75;;;;;;;;;;4993546;28;20633;-44
2021/09/26 09:33:23;;;;;;;29.27;9.35;;;;;;;;;;4986307;28;20022;-46
2021/09/26 09:35:50;;;;;;;20.38;8.93;;;;;;;;;;4991549;28;20064;-42
2021/09/26 09:38:16;;;;;;;34.38;10.07;;;;;;;;;;4985133;28;20031;-44
2021/09/26 09:40:42;;;;;;;23.10;8.98;;;;;;;;;;4988848;28;20025;-46
2021/09/26 09:43:07;;;;;;;48.38;10.63;;;;;;;;;;4986419;28;20345;-44
2021/09/26 09:45:37;;;;;;;16.40;9.40;;;;;;;;;;4988768;28;20099;-50
2021/09/26 09:48:10;;;;;;;28.77;10.90;;;;;;;;;;4986734;28;20026;-45
2021/09/26 09:50:53;;;;;;;15.77;7.70;;;;;;;;;;4988785;28;20026;-45
2021/09/26 09:53:20;;;;;;;17.27;9.70;;;;;;;;;;4989388;28;20048;-43
2021/09/26 09:55:45;;;;;;;18.67;10.27;;;;;;;;;;4991147;28;20018;-47
2021/09/26 09:58:15;;;;;;;27.33;9.07;;;;;;;;;;4986247;28;20458;-43
2021/09/26 10:00:48;;;;;;;24.80;9.95;;;;;;;;;;4983372;28;20129;-46
2021/09/26 10:03:33;;;;;;;27.85;9.95;;;;;;;;;;4982986;28;20555;-43
2021/09/26 10:05:59;;;;;;;18.33;7.97;;;;;;;;;;4987449;28;20131;-44
2021/09/26 10:08:30;;;;;;;26.08;8.65;;;;;;;;;;4985043;28;20107;-47
2021/09/26 10:11:04;;;;;;;27.48;11.27;;;;;;;;;;4989534;28;20030;-43
2021/09/26 10:13:29;;;;;;;11.60;9.15;;;;;;;;;;4986634;28;20039;-46
2021/09/26 10:15:54;;;;;;;31.63;11.50;;;;;;;;;;4984719;28;20076;-47
2021/09/26 10:18:20;;;;;;;23.33;13.25;;;;;;;;;;4988802;28;20030;-47
2021/09/26 10:20:45;;;;;;;34.08;10.32;;;;;;;;;;4990015;28;20030;-44
2021/09/26 10:23:10;;;;;;;34.33;10.25;;;;;;;;;;4985471;28;20022;-47
2021/09/26 10:25:36;;;;;;;35.90;11.23;;;;;;;;;;4995097;28;20038;-42
2021/09/26 10:28:01;;;;;;;18.90;8.93;;;;;;;;;;4988292;28;20026;-43
2021/09/26 10:30:27;;;;;;;21.83;9.45;;;;;;;;;;4985638;28;20026;-49
2021/09/26 10:32:54;;;;;;;12.50;6.60;;;;;;;;;;4990194;28;20041;-44
2021/09/26 10:35:19;;;;;;;18.00;9.40;;;;;;;;;;4983605;28;20065;-44
2021/09/26 10:37:46;;;;;;;28.95;9.13;;;;;;;;;;4984442;28;20047;-48
2021/09/26 10:40:11;;;;;;;15.27;7.85;;;;;;;;;;4984378;28;20030;-41
2021/09/26 10:42:37;;;;;;;23.92;10.00;;;;;;;;;;4986207;28;20831;-44
2021/09/26 10:45:04;;;;;;;26.35;8.25;;;;;;;;;;4995404;28;20030;-42
2021/09/26 10:47:31;;;;;;;18.00;8.40;;;;;;;;;;4985707;28;20026;-42
2021/09/26 10:49:57;;;;;;;17.60;7.03;;;;;;;;;;4986973;28;20037;-43
2021/09/26 10:52:22;;;;;;;21.40;6.97;;;;;;;;;;4984086;28;20021;-42
2021/09/26 10:54:47;;;;;;;24.17;7.22;;;;;;;;;;4986512;28;20018;-45
2021/09/26 10:57:12;;;;;;;28.50;8.75;;;;;;;;;;4985537;28;20627;-46
2021/09/26 10:59:44;;;;;;;7.75;6.82;;;;;;;;;;4990432;28;20053;-44
2021/09/26 11:02:29;;;;;;;11.52;7.70;;;;;;;;;;4985629;28;20063;-42
2021/09/26 11:05:06;;;;;;;8.05;6.18;;;;;;;;;;5002048;28;20052;-42
2021/09/26 11:07:35;;;;;;;9.52;8.60;;;;;;;;;;4988155;28;20088;-42
2021/09/26 11:10:04;;;;;;;21.25;11.63;;;;;;;;;;4987439;28;20619;-43
2021/09/26 11:12:39;;;;;;;12.35;10.10;;;;;;;;;;4984056;28;20034;-43
2021/09/26 11:15:15;;;;;;;22.00;7.97;;;;;;;;;;4992315;28;20029;-42
2021/09/26 11:17:40;;;;;;;13.98;7.97;;;;;;;;;;4985577;28;20101;-46
2021/09/26 11:20:06;;;;;;;9.45;7.60;;;;;;;;;;4985608;28;20109;-45
2021/09/26 11:22:31;;;;;;;12.23;8.27;;;;;;;;;;4985130;28;20038;-44
2021/09/26 11:25:04;;;;;;;14.85;7.43;;;;;;;;;;4977619;28;20483;-49
2021/09/26 11:27:34;;;;;;;11.10;8.38;;;;;;;;;;4983393;28;20033;-49
2021/09/26 11:29:59;;;;;;;9.97;6.40;;;;;;;;;;4982755;28;20112;-47
2021/09/26 11:32:25;;;;;;;12.50;8.00;;;;;;;;;;4983791;28;20397;-47
2021/09/26 11:34:52;;;;;;;8.50;6.40;;;;;;;;;;4986232;28;20491;-47
2021/09/26 11:37:21;;;;;;;11.30;7.97;;;;;;;;;;4984717;28;20026;-48
2021/09/26 11:39:50;;;;;;;19.52;7.70;;;;;;;;;;4982985;28;20566;-41
2021/09/26 11:42:34;;;;;;;13.70;10.15;;;;;;;;;;4985230;28;20051;-42
2021/09/26 11:45:01;;;;;;;15.85;8.65;;;;;;;;;;4979792;28;20750;-47
2021/09/26 11:47:27;;;;;;;10.90;8.07;;;;;;;;;;4990598;28;20109;-44
2021/09/26 11:49:53;;;;;;;13.60;7.53;;;;;;;;;;4988464;28;20124;-47
2021/09/26 11:52:22;;;;;;;7.78;7.13;;;;;;;;;;4982881;28;20038;-47
2021/09/26 11:54:47;;;;;;;14.00;8.00;;;;;;;;;;4986615;28;20039;-44
2021/09/26 11:57:12;;;;;;;9.38;6.65;;;;;;;;;;4985864;28;20421;-44
2021/09/26 11:59:41;;;;;;;10.07;6.13;;;;;;;;;;4985574;28;20030;-47
2021/09/26 12:02:11;;;;;;;8.25;6.03;;;;;;;;;;4986521;28;20030;-45
2021/09/26 12:04:36;;;;;;;10.07;6.88;;;;;;;;;;4988915;28;20060;-43
2021/09/26 12:07:03;;;;;;;9.35;6.32;;;;;;;;;;4989733;28;20053;-48
2021/09/26 12:09:34;;;;;;;6.57;5.10;;;;;;;;;;4988771;28;20103;-43
2021/09/26 12:12:04;;;;;;;9.85;5.78;;;;;;;;;;4991284;28;20034;-44
2021/09/26 12:14:30;;;;;;;5.77;5.23;;;;;;;;;;4989022;28;20034;-48
2021/09/26 12:17:00;;;;;;;7.22;5.45;;;;;;;;;;4990301;28;20530;-44
2021/09/26 12:19:28;;;;;;;6.78;4.65;;;;;;;;;;4986882;28;20018;-45
2021/09/26 12:22:02;;;;;;;6.10;5.07;;;;;;;;;;4987298;28;20027;-43
2021/09/26 12:24:36;;;;;;;9.02;6.45;;;;;;;;;;4986032;28;20100;-46
2021/09/26 12:27:13;;;;;;;8.23;6.78;;;;;;;;;;4990091;28;20109;-42
2021/09/26 12:29:48;;;;;;;9.55;5.18;;;;;;;;;;4986001;28;20039;-43
2021/09/26 12:32:13;;;;;;;5.90;5.38;;;;;;;;;;4991847;28;20026;-43
2021/09/26 12:34:45;;;;;;;7.82;5.00;;;;;;;;;;4991863;28;20610;-42
2021/09/26 12:37:37;;;;;;;7.22;5.18;;;;;;;;;;4988129;28;20508;-42
2021/09/26 12:40:06;;;;;;;7.50;5.75;;;;;;;;;;4997612;28;20030;-43
2021/09/26 12:42:36;;;;;;;5.90;5.32;;;;;;;;;;4989278;28;20540;-44
2021/09/26 12:45:23;;;;;;;9.23;5.65;;;;;;;;;;4990178;28;20073;-42
2021/09/26 12:47:50;;;;;;;5.95;4.57;;;;;;;;;;4990090;28;20065;-46
2021/09/26 12:50:16;;;;;;;13.32;4.78;;;;;;;;;;4994334;28;20027;-45
2021/09/26 12:52:43;;;;;;;5.88;4.93;;;;;;;;;;4990644;28;20487;-44
2021/09/26 12:55:11;;;;;;;5.55;4.28;;;;;;;;;;4988008;28;20052;-42
2021/09/26 12:57:39;;;;;;;5.95;4.22;;;;;;;;;;4992661;28;20025;-49
2021/09/26 13:00:19;;;;;;;8.75;4.80;;;;;;;;;;4988852;28;20040;-45
2021/09/26 13:02:50;;;;;;;8.93;3.65;;;;;;;;;;4990378;28;20026;-45
2021/09/26 13:05:23;;;;;;;11.07;4.65;;;;;;;;;;4988305;28;20045;-46
2021/09/26 13:08:09;;;;;;;4.80;3.42;;;;;;;;;;4988114;28;20101;-45
2021/09/26 13:10:35;;;;;;;4.75;4.30;;;;;;;;;;5001508;28;20030;-41
2021/09/26 13:13:15;;;;;;;5.50;4.00;;;;;;;;;;4988684;28;20399;-42
2021/09/26 13:15:42;;;;;;;5.20;4.07;;;;;;;;;;4986523;28;20634;-45
2021/09/26 13:18:13;;;;;;;6.00;5.25;;;;;;;;;;4987047;28;20022;-45
2021/09/26 13:20:39;;;;;;;6.20;4.80;;;;;;;;;;4985100;28;20027;-45
2021/09/26 13:23:23;;;;;;;4.63;3.15;;;;;;;;;;4985680;28;20017;-48
2021/09/26 13:25:50;;;;;;;6.63;3.78;;;;;;;;;;4990589;28;20044;-47
2021/09/26 13:28:18;;;;;;;5.05;4.60;;;;;;;;;;4989699;28;20480;-43
2021/09/26 13:30:44;;;;;;;5.18;4.22;;;;;;;;;;4993300;28;20125;-43
2021/09/26 13:33:27;;;;;;;6.60;4.07;;;;;;;;;;4989614;28;20113;-47
2021/09/26 13:35:52;;;;;;;4.45;4.00;;;;;;;;;;4989954;28;20025;-44
2021/09/26 13:38:19;;;;;;;10.73;5.00;;;;;;;;;;4988237;28;20383;-47
2021/09/26 13:41:04;;;;;;;15.75;6.63;;;;;;;;;;4990588;28;20026;-41
2021/09/26 13:43:30;;;;;;;8.60;5.55;;;;;;;;;;4988928;28;20526;-42
2021/09/26 13:45:55;;;;;;;8.25;4.80;;;;;;;;;;4988448;28;20030;-42
2021/09/26 13:48:20;;;;;;;7.57;4.40;;;;;;;;;;4986529;28;20588;-47
2021/09/26 13:50:46;;;;;;;7.22;4.85;;;;;;;;;;4985725;28;20038;-44
2021/09/26 13:53:15;;;;;;;10.55;5.03;;;;;;;;;;4991250;28;20140;-45
2021/09/26 13:55:42;;;;;;;6.72;6.07;;;;;;;;;;4985658;28;20030;-45
2021/09/26 13:58:09;;;;;;;5.93;3.90;;;;;;;;;;4985307;28;20026;-45
2021/09/26 14:00:35;;;;;;;7.32;5.85;;;;;;;;;;4987029;28;20104;-45
2021/09/26 14:03:01;;;;;;;11.82;6.63;;;;;;;;;;4988866;28;20026;-47
2021/09/26 14:05:27;;;;;;;13.82;6.57;;;;;;;;;;4990482;28;20036;-48
2021/09/26 14:07:55;;;;;;;4.88;4.38;;;;;;;;;;4984422;28;20026;-47
2021/09/26 14:10:20;;;;;;;6.68;4.57;;;;;;;;;;4983081;28;20180;-43
2021/09/26 14:12:46;;;;;;;12.80;3.65;;;;;;;;;;4998401;28;20447;-47
2021/09/26 14:15:11;;;;;;;4.80;4.13;;;;;;;;;;4990453;28;20046;-43
2021/09/26 14:17:37;;;;;;;4.47;3.67;;;;;;;;;;4990828;28;20128;-44
2021/09/26 14:20:03;;;;;;;8.65;3.85;;;;;;;;;;4988779;28;20545;-41
2021/09/26 14:22:29;;;;;;;10.60;3.65;;;;;;;;;;4986898;28;20030;-43
2021/09/26 14:24:54;;;;;;;7.00;3.80;;;;;;;;;;4985707;28;20405;-43
2021/09/26 14:27:19;;;;;;;10.88;3.53;;;;;;;;;;4988833;28;20126;-44